Аэропорт: Хомутово. Южно-Сахалинск

ICAO: UHSS

METAR:
2022-06-26 12:00:00
UHSS 261200Z 32003MPS 9999 NSC 15/10 Q1004 RMK QFE752/1003
METAR:
2022-06-26 10:55:00
TAF UHSS 261055Z 2612/2718 36003MPS 9999 BKN030CB